createdAt,value
2023-02-17T00:00:10.747Z,-0.56
2023-02-17T00:01:10.736Z,-0.17
2023-02-17T00:02:10.830Z,-0.17
2023-02-17T00:03:10.753Z,0
2023-02-17T00:04:10.750Z,-0.17
2023-02-17T00:05:10.735Z,0
2023-02-17T00:06:10.739Z,-0.17
2023-02-17T00:07:10.739Z,0
2023-02-17T00:08:10.736Z,0
2023-02-17T00:09:10.747Z,0
2023-02-17T00:10:10.734Z,-0.17
2023-02-17T00:11:10.737Z,-0.28
2023-02-17T00:12:10.731Z,0
2023-02-17T00:13:10.739Z,-0.56
2023-02-17T00:14:10.741Z,-0.17
2023-02-17T00:15:10.756Z,0
2023-02-17T00:16:10.794Z,-0.28
2023-02-17T00:17:10.747Z,-0.17
2023-02-17T00:18:10.743Z,-0.17
2023-02-17T00:19:10.773Z,0
2023-02-17T00:20:10.745Z,-0.17
2023-02-17T00:21:10.752Z,0
2023-02-17T00:22:10.754Z,0
2023-02-17T00:23:10.751Z,0.17
2023-02-17T00:24:10.749Z,-0.17
2023-02-17T00:25:10.770Z,0.28
2023-02-17T00:26:10.772Z,-0.17
2023-02-17T00:27:10.809Z,0
2023-02-17T00:28:10.771Z,0
2023-02-17T00:29:10.758Z,0
2023-02-17T00:30:10.806Z,0.17
2023-02-17T00:31:10.913Z,0
2023-02-17T00:32:10.888Z,0
2023-02-17T00:33:10.792Z,0
2023-02-17T00:34:10.788Z,-0.17
2023-02-17T00:35:10.797Z,-0.17
2023-02-17T00:36:10.766Z,0.22
2023-02-17T00:37:10.782Z,0.17
2023-02-17T00:38:10.777Z,0
2023-02-17T00:39:10.783Z,0
2023-02-17T00:40:10.775Z,0
2023-02-17T00:41:10.790Z,0.28
2023-02-17T00:42:10.794Z,0.44
2023-02-17T00:43:10.787Z,0.17
2023-02-17T00:44:10.786Z,0.28
2023-02-17T00:45:10.791Z,0.61
2023-02-17T00:46:10.853Z,0.17
2023-02-17T00:47:10.798Z,0.44
2023-02-17T00:48:10.814Z,0.44
2023-02-17T00:49:10.805Z,0.44
2023-02-17T00:50:10.800Z,0.17
2023-02-17T00:51:10.837Z,0.44
2023-02-17T00:52:10.803Z,0.28
2023-02-17T00:53:10.825Z,0.17
2023-02-17T00:54:10.804Z,0.44
2023-02-17T00:55:10.830Z,0.28
2023-02-17T00:56:10.812Z,0.28
2023-02-17T00:57:10.827Z,0.44
2023-02-17T00:58:10.823Z,0.44
2023-02-17T00:59:10.827Z,0.17
2023-02-17T01:00:10.829Z,0.28
2023-02-17T01:01:10.825Z,0.44
2023-02-17T01:02:10.834Z,0.28
2023-02-17T01:03:10.838Z,0.44
2023-02-17T01:04:10.854Z,0.28
2023-02-17T01:05:10.836Z,0.44
2023-02-17T01:06:10.843Z,0.44
2023-02-17T01:07:10.870Z,0.17
2023-02-17T01:08:10.841Z,0.17
2023-02-17T01:09:10.851Z,-0.17
2023-02-17T01:10:10.876Z,0.28
2023-02-17T01:11:10.870Z,0.17
2023-02-17T01:12:10.860Z,0
2023-02-17T01:13:10.853Z,-0.17
2023-02-17T01:14:10.861Z,0.17
2023-02-17T01:15:10.857Z,0
2023-02-17T01:16:10.896Z,0
2023-02-17T01:17:10.857Z,0.17
2023-02-17T01:18:10.855Z,0
2023-02-17T01:19:10.860Z,0.17
2023-02-17T01:20:10.874Z,0.44
2023-02-17T01:21:10.863Z,0.17
2023-02-17T01:22:10.872Z,0.44
2023-02-17T01:23:10.887Z,0.44
2023-02-17T01:24:10.863Z,0.17
2023-02-17T01:25:10.879Z,0.17
2023-02-17T01:26:10.865Z,0
2023-02-17T01:27:10.870Z,0.17
2023-02-17T01:28:10.865Z,-0.28
2023-02-17T01:29:10.867Z,0.28
2023-02-17T01:30:10.918Z,0.17
2023-02-17T01:31:10.966Z,0.17
2023-02-17T01:32:10.878Z,0.44
2023-02-17T01:33:10.860Z,0.44
2023-02-17T01:34:10.871Z,0.17
2023-02-17T01:35:10.884Z,0.44
2023-02-17T01:36:10.872Z,0.17
2023-02-17T01:37:10.887Z,0.28
2023-02-17T01:38:10.882Z,0.28
2023-02-17T01:39:10.904Z,0.17
2023-02-17T01:40:10.888Z,0.17
2023-02-17T01:41:10.892Z,0.28
2023-02-17T01:42:10.883Z,0
2023-02-17T01:43:10.886Z,0
2023-02-17T01:44:10.896Z,0
2023-02-17T01:45:10.884Z,0.44
2023-02-17T01:46:10.889Z,0.28
2023-02-17T01:47:10.888Z,0.28
2023-02-17T01:48:10.894Z,0.17
2023-02-17T01:49:10.895Z,0.44
2023-02-17T01:50:10.910Z,0.28
2023-02-17T01:51:10.893Z,0.44
2023-02-17T01:52:10.912Z,0
2023-02-17T01:53:10.898Z,0.28
2023-02-17T01:54:10.913Z,0.28
2023-02-17T01:55:10.942Z,0.44
2023-02-17T01:56:10.909Z,0.44
2023-02-17T01:57:10.935Z,0.44
2023-02-17T01:58:10.913Z,0.17
2023-02-17T01:59:10.915Z,0.17
2023-02-17T02:00:10.918Z,0.44
2023-02-17T02:01:10.913Z,0.44
2023-02-17T02:02:11.076Z,0.28
2023-02-17T02:03:10.910Z,0.28
2023-02-17T02:04:10.931Z,0.44
2023-02-17T02:05:10.922Z,0.28
2023-02-17T02:06:10.926Z,0.28
2023-02-17T02:07:10.930Z,0.28
2023-02-17T02:08:10.917Z,0.44
2023-02-17T02:09:10.924Z,0.44
2023-02-17T02:10:10.934Z,0.17
2023-02-17T02:11:11.179Z,0
2023-02-17T02:12:10.932Z,0.28
2023-02-17T02:13:10.976Z,0.17
2023-02-17T02:14:10.945Z,0.61
2023-02-17T02:15:10.937Z,0.44
2023-02-17T02:16:10.967Z,0.44
2023-02-17T02:17:10.950Z,0.61
2023-02-17T02:18:10.962Z,0.61
2023-02-17T02:19:10.938Z,0.44
2023-02-17T02:20:10.942Z,0.44
2023-02-17T02:21:10.960Z,0.17
2023-02-17T02:22:10.950Z,0.44
2023-02-17T02:23:10.946Z,0.44
2023-02-17T02:24:10.958Z,0.28
2023-02-17T02:25:10.952Z,0.17
2023-02-17T02:26:10.957Z,0.28
2023-02-17T02:27:11.016Z,0.61
2023-02-17T02:28:10.955Z,0.44
2023-02-17T02:29:10.976Z,0.44
2023-02-17T02:30:10.988Z,0.17
2023-02-17T02:31:11.090Z,0.17
2023-02-17T02:32:10.965Z,0.17
2023-02-17T02:33:10.967Z,-0.17
2023-02-17T02:34:10.975Z,0.28
2023-02-17T02:35:10.991Z,0
2023-02-17T02:36:10.976Z,-0.17
2023-02-17T02:37:10.979Z,-0.56
2023-02-17T02:38:10.977Z,-0.56
2023-02-17T02:39:10.983Z,-0.39
2023-02-17T02:40:10.976Z,-0.28
2023-02-17T02:41:10.974Z,-0.39
2023-02-17T02:42:10.989Z,-0.17
2023-02-17T02:43:11.002Z,-0.17
2023-02-17T02:44:10.988Z,-0.17
2023-02-17T02:45:10.991Z,-0.28
2023-02-17T02:46:11.003Z,0.17
2023-02-17T02:47:10.987Z,0
2023-02-17T02:48:10.990Z,0
2023-02-17T02:49:10.990Z,0
2023-02-17T02:50:10.981Z,0
2023-02-17T02:51:11.001Z,0.17
2023-02-17T02:52:10.994Z,0
2023-02-17T02:53:11.004Z,-0.17
2023-02-17T02:54:10.989Z,0
2023-02-17T02:55:10.990Z,0.28
2023-02-17T02:56:11.000Z,0.44
2023-02-17T02:57:10.995Z,0.44
2023-02-17T02:58:11.000Z,0.44
2023-02-17T02:59:11.012Z,0.44
2023-02-17T03:00:10.997Z,0.17
2023-02-17T03:01:11.065Z,0.44
2023-02-17T03:02:11.000Z,0.44
2023-02-17T03:03:11.000Z,0.17
2023-02-17T03:04:11.065Z,0.28
2023-02-17T03:05:11.003Z,0.17
2023-02-17T03:06:11.010Z,0.44
2023-02-17T03:07:11.010Z,0.44
2023-02-17T03:08:11.063Z,0.44
2023-02-17T03:09:11.014Z,0
2023-02-17T03:10:11.045Z,0.44
2023-02-17T03:11:11.007Z,0.17
2023-02-17T03:12:11.021Z,0.17
2023-02-17T03:13:11.017Z,0.44
2023-02-17T03:14:11.015Z,0.17
2023-02-17T03:15:11.041Z,0.44
2023-02-17T03:16:11.051Z,0.28
2023-02-17T03:17:11.024Z,0.17
2023-02-17T03:18:11.021Z,0.44
2023-02-17T03:19:11.029Z,0.44
2023-02-17T03:20:11.027Z,0.61
2023-02-17T03:21:11.024Z,0.61
2023-02-17T03:22:11.034Z,0.17
2023-02-17T03:23:11.024Z,0.61
2023-02-17T03:24:11.035Z,0.44
2023-02-17T03:25:11.022Z,0.28
2023-02-17T03:26:11.035Z,0.44
2023-02-17T03:27:11.027Z,0.44
2023-02-17T03:28:11.037Z,0.17
2023-02-17T03:29:11.035Z,0.44
2023-02-17T03:30:11.106Z,0
2023-02-17T03:31:11.105Z,0
2023-02-17T03:32:11.121Z,0
2023-02-17T03:33:11.057Z,0
2023-02-17T03:34:11.063Z,-0.17
2023-02-17T03:35:11.048Z,0
2023-02-17T03:36:11.044Z,0
2023-02-17T03:37:11.035Z,-0.17
2023-02-17T03:38:11.039Z,0
2023-02-17T03:39:11.040Z,0
2023-02-17T03:40:11.052Z,0.17
2023-02-17T03:41:11.049Z,0.17
2023-02-17T03:42:11.047Z,0
2023-02-17T03:43:11.042Z,0
2023-02-17T03:44:11.042Z,0.17
2023-02-17T03:45:11.037Z,0.28
2023-02-17T03:46:11.086Z,0.44
2023-02-17T03:47:11.065Z,0.17
2023-02-17T03:48:11.037Z,0.28
2023-02-17T03:49:12.922Z,0.17
2023-02-17T03:50:11.049Z,0.28
2023-02-17T03:51:11.065Z,0.28
2023-02-17T03:52:11.045Z,0.44
2023-02-17T03:53:11.045Z,0.28
2023-02-17T03:54:11.044Z,-0.17
2023-02-17T03:55:11.056Z,0.44
2023-02-17T03:56:11.045Z,0.44
2023-02-17T03:57:11.045Z,0.44
2023-02-17T03:58:11.056Z,0
2023-02-17T03:59:11.066Z,0.44
2023-02-17T04:00:11.064Z,0.17
2023-02-17T04:01:11.075Z,0.28
2023-02-17T04:02:11.058Z,0.28
2023-02-17T04:03:11.076Z,0.28
2023-02-17T04:04:11.113Z,0.28
2023-02-17T04:05:11.058Z,0.17
2023-02-17T04:06:11.049Z,0.44
2023-02-17T04:07:11.057Z,0.44
2023-02-17T04:08:11.073Z,0.17
2023-02-17T04:09:11.062Z,0.28
2023-02-17T04:10:11.070Z,0.28
2023-02-17T04:11:11.050Z,0
2023-02-17T04:12:11.074Z,0
2023-02-17T04:13:11.070Z,0.28
2023-02-17T04:14:11.065Z,0
2023-02-17T04:15:11.074Z,-0.17
2023-02-17T04:16:11.070Z,-0.17
2023-02-17T04:17:11.070Z,-0.17
2023-02-17T04:18:11.065Z,0.17
2023-02-17T04:19:11.097Z,-0.17
2023-02-17T04:20:11.080Z,-0.28
2023-02-17T04:21:11.076Z,0.17
2023-02-17T04:22:11.071Z,0.17
2023-02-17T04:23:11.068Z,0.17
2023-02-17T04:24:11.064Z,0.28
2023-02-17T04:25:11.069Z,0.28
2023-02-17T04:26:11.089Z,0.17
2023-02-17T04:27:11.073Z,0.17
2023-02-17T04:28:11.073Z,0.17
2023-02-17T04:29:11.076Z,0.44
2023-02-17T04:30:12.398Z,0.28
2023-02-17T04:31:11.221Z,0.44
2023-02-17T04:32:11.117Z,0.44
2023-02-17T04:33:11.080Z,0.28
2023-02-17T04:34:11.073Z,0.17
2023-02-17T04:35:11.119Z,0.44
2023-02-17T04:36:11.069Z,0.44
2023-02-17T04:37:11.085Z,0.28
2023-02-17T04:38:11.085Z,0.44
2023-02-17T04:39:11.084Z,0.28
2023-02-17T04:40:11.076Z,0.28
2023-02-17T04:41:11.077Z,0.17
2023-02-17T04:42:11.084Z,0.44
2023-02-17T04:43:11.093Z,0.72
2023-02-17T04:44:11.081Z,0.72
2023-02-17T04:45:11.076Z,0.61
2023-02-17T04:46:11.134Z,0.44
2023-02-17T04:47:11.125Z,0.61
2023-02-17T04:48:11.081Z,0.44
2023-02-17T04:49:11.078Z,0.17
2023-02-17T04:50:11.076Z,0.61
2023-02-17T04:51:11.112Z,0.61
2023-02-17T04:52:11.086Z,0.72
2023-02-17T04:53:11.091Z,0.28
2023-02-17T04:54:11.088Z,0.44
2023-02-17T04:55:11.089Z,0.44
2023-02-17T04:56:11.099Z,0.44
2023-02-17T04:57:11.073Z,0.28
2023-02-17T04:58:11.097Z,0.28
2023-02-17T04:59:11.080Z,0.44
2023-02-17T05:00:11.077Z,0.44
2023-02-17T05:01:11.139Z,0.28
2023-02-17T05:02:11.087Z,0.44
2023-02-17T05:03:11.097Z,0.17
2023-02-17T05:04:11.078Z,0.17
2023-02-17T05:05:11.107Z,0.44
2023-02-17T05:06:11.093Z,-0.17
2023-02-17T05:07:11.112Z,0.17
2023-02-17T05:08:11.097Z,0
2023-02-17T05:09:11.101Z,-0.17
2023-02-17T05:10:11.110Z,-0.28
2023-02-17T05:11:11.086Z,0
2023-02-17T05:12:11.107Z,-0.67
2023-02-17T05:13:11.097Z,-0.17
2023-02-17T05:14:11.106Z,0
2023-02-17T05:15:11.110Z,-0.39
2023-02-17T05:16:11.150Z,-0.28
2023-02-17T05:17:11.103Z,-0.67
2023-02-17T05:18:11.102Z,-0.39
2023-02-17T05:19:11.113Z,-0.39
2023-02-17T05:20:11.107Z,-0.39
2023-02-17T05:21:11.105Z,-0.28
2023-02-17T05:22:11.098Z,-0.28
2023-02-17T05:23:11.131Z,-0.28
2023-02-17T05:24:11.146Z,-0.56
2023-02-17T05:25:11.111Z,-0.39
2023-02-17T05:26:11.135Z,-0.28
2023-02-17T05:27:11.113Z,-0.17
2023-02-17T05:28:11.120Z,-0.17
2023-02-17T05:29:11.120Z,0.17
2023-02-17T05:30:11.136Z,0
2023-02-17T05:31:11.236Z,-0.28
2023-02-17T05:32:11.176Z,-0.17
2023-02-17T05:33:11.129Z,0
2023-02-17T05:34:11.118Z,-0.17
2023-02-17T05:35:11.114Z,0.28
2023-02-17T05:36:11.123Z,0
2023-02-17T05:37:11.117Z,-0.28
2023-02-17T05:38:11.113Z,0.44
2023-02-17T05:39:11.153Z,0.44
2023-02-17T05:40:11.131Z,0.28
2023-02-17T05:41:11.121Z,0.28
2023-02-17T05:42:11.125Z,0.44
2023-02-17T05:43:11.115Z,0.28
2023-02-17T05:44:11.163Z,0.28
2023-02-17T05:45:11.143Z,-0.17
2023-02-17T05:46:11.223Z,0.44
2023-02-17T05:47:11.136Z,0.28
2023-02-17T05:48:11.132Z,0.17
2023-02-17T05:49:11.140Z,0.17
2023-02-17T05:50:11.133Z,0
2023-02-17T05:51:11.135Z,0.17
2023-02-17T05:52:11.153Z,0.28
2023-02-17T05:53:11.142Z,0
2023-02-17T05:54:11.144Z,0.17
2023-02-17T05:55:11.154Z,0.44
2023-02-17T05:56:11.144Z,0.17
2023-02-17T05:57:11.147Z,0.28
2023-02-17T05:58:11.143Z,0.17
2023-02-17T05:59:11.150Z,0.17
2023-02-17T06:00:11.151Z,0.17
2023-02-17T06:01:11.152Z,0.28
2023-02-17T06:02:11.146Z,0.28
2023-02-17T06:03:11.195Z,0.17
2023-02-17T06:04:11.155Z,0
2023-02-17T06:05:11.254Z,0.17
2023-02-17T06:06:11.160Z,-0.17
2023-02-17T06:07:11.161Z,0
2023-02-17T06:08:11.164Z,-0.39
2023-02-17T06:09:11.164Z,-0.17
2023-02-17T06:10:11.164Z,0.17
2023-02-17T06:11:11.182Z,0.17
2023-02-17T06:12:11.157Z,0.28
2023-02-17T06:13:11.157Z,0.44
2023-02-17T06:14:11.159Z,0.44
2023-02-17T06:15:11.177Z,0.44
2023-02-17T06:16:11.210Z,0.17
2023-02-17T06:17:11.177Z,0.17
2023-02-17T06:18:11.170Z,0.28
2023-02-17T06:19:11.162Z,0.28
2023-02-17T06:20:11.177Z,0.28
2023-02-17T06:21:11.158Z,0.44
2023-02-17T06:22:11.168Z,0.44
2023-02-17T06:23:11.171Z,0
2023-02-17T06:24:11.171Z,0.44
2023-02-17T06:25:11.164Z,0.17
2023-02-17T06:26:11.176Z,0.61
2023-02-17T06:27:11.194Z,0.44
2023-02-17T06:28:11.195Z,0.44
2023-02-17T06:29:11.171Z,0.44
2023-02-17T06:30:11.206Z,0.44
2023-02-17T06:31:11.298Z,0.44
2023-02-17T06:32:11.239Z,0.44
2023-02-17T06:33:11.168Z,0.72
2023-02-17T06:34:11.170Z,0.17
2023-02-17T06:35:11.172Z,0.44
2023-02-17T06:36:11.184Z,0.61
2023-02-17T06:37:11.178Z,0.72
2023-02-17T06:38:11.217Z,0.61
2023-02-17T06:39:11.182Z,0.61
2023-02-17T06:40:11.169Z,0.61
2023-02-17T06:41:11.183Z,0.44
2023-02-17T06:42:11.195Z,0.72
2023-02-17T06:43:11.229Z,0.61
2023-02-17T06:44:11.185Z,0.17
2023-02-17T06:45:11.195Z,0.28
2023-02-17T06:46:11.241Z,0.44
2023-02-17T06:47:11.192Z,0.89
2023-02-17T06:48:11.180Z,0.44
2023-02-17T06:49:11.183Z,0.72
2023-02-17T06:50:11.196Z,0.28
2023-02-17T06:51:11.196Z,0.44
2023-02-17T06:52:11.195Z,0.44
2023-02-17T06:53:11.192Z,0.28
2023-02-17T06:54:11.191Z,0.17
2023-02-17T06:55:11.193Z,0.44
2023-02-17T06:56:11.196Z,0.89
2023-02-17T06:57:11.222Z,0.72
2023-02-17T06:58:11.198Z,0.89
2023-02-17T06:59:11.239Z,0.89
2023-02-17T07:00:11.213Z,0.72
2023-02-17T07:01:11.206Z,0.89
2023-02-17T07:02:11.284Z,0.61
2023-02-17T07:03:11.313Z,1.06
2023-02-17T07:04:11.207Z,1.06
2023-02-17T07:05:11.224Z,1.06
2023-02-17T07:06:11.206Z,0.72
2023-02-17T07:07:11.207Z,1.06
2023-02-17T07:08:11.216Z,1.17
2023-02-17T07:09:11.211Z,1.17
2023-02-17T07:10:11.213Z,1.17
2023-02-17T07:11:11.209Z,1.17
2023-02-17T07:12:11.222Z,0.89
2023-02-17T07:13:11.224Z,1.17
2023-02-17T07:14:11.206Z,1.33
2023-02-17T07:15:12.410Z,1.33
2023-02-17T07:16:11.246Z,1.17
2023-02-17T07:17:11.216Z,1.33
2023-02-17T07:18:11.210Z,1.17
2023-02-17T07:19:11.230Z,1.17
2023-02-17T07:20:11.222Z,1.61
2023-02-17T07:21:11.226Z,1.72
2023-02-17T07:22:11.225Z,1.61
2023-02-17T07:23:11.229Z,1.72
2023-02-17T07:24:11.232Z,1.5
2023-02-17T07:25:11.237Z,1.61
2023-02-17T07:26:11.234Z,1.5
2023-02-17T07:27:11.223Z,1.61
2023-02-17T07:28:11.227Z,1.33
2023-02-17T07:29:11.225Z,1.33
2023-02-17T07:30:11.307Z,1.5
2023-02-17T07:31:11.345Z,1.61
2023-02-17T07:32:11.234Z,1.61
2023-02-17T07:33:11.241Z,1.61
2023-02-17T07:34:11.239Z,1.72
2023-02-17T07:35:11.233Z,1.72
2023-02-17T07:36:11.251Z,1.72
2023-02-17T07:37:11.258Z,1.5
2023-02-17T07:38:11.220Z,1.5
2023-02-17T07:39:11.234Z,1.72
2023-02-17T07:40:11.219Z,1.33
2023-02-17T07:41:11.238Z,1.33
2023-02-17T07:42:11.244Z,1.5
2023-02-17T07:43:11.247Z,1.33
2023-02-17T07:44:11.260Z,1.33
2023-02-17T07:45:11.229Z,1.33
2023-02-17T07:46:11.303Z,0.61
2023-02-17T07:47:11.268Z,0.61
2023-02-17T07:48:11.240Z,0.72
2023-02-17T07:49:11.231Z,0.44
2023-02-17T07:50:11.250Z,0.17
2023-02-17T07:51:11.244Z,0.72
2023-02-17T07:52:11.242Z,0.72
2023-02-17T07:53:11.249Z,1.17
2023-02-17T07:54:11.248Z,0.89
2023-02-17T07:55:11.266Z,1.33
2023-02-17T07:56:11.260Z,1.33
2023-02-17T07:57:11.260Z,1.17
2023-02-17T07:58:11.244Z,0.89
2023-02-17T07:59:11.260Z,0.89
2023-02-17T08:00:11.242Z,1.06
2023-02-17T08:01:11.268Z,1.06
2023-02-17T08:02:11.309Z,1.33
2023-02-17T08:03:11.282Z,1.06
2023-02-17T08:04:11.292Z,1.33
2023-02-17T08:05:11.252Z,1.5
2023-02-17T08:06:11.257Z,1.5
2023-02-17T08:07:11.258Z,1.72
2023-02-17T08:08:11.249Z,1.72
2023-02-17T08:09:11.264Z,1.72
2023-02-17T08:10:11.251Z,2
2023-02-17T08:11:11.261Z,2
2023-02-17T08:12:11.246Z,1.89
2023-02-17T08:13:11.251Z,2.28
2023-02-17T08:14:13.090Z,2.44
2023-02-17T08:15:11.255Z,2.17
2023-02-17T08:16:11.276Z,1.61
2023-02-17T08:17:11.256Z,1.5
2023-02-17T08:18:11.266Z,1.33
2023-02-17T08:19:11.297Z,1.61
2023-02-17T08:20:11.263Z,1.89
2023-02-17T08:21:11.281Z,2.17
2023-02-17T08:22:11.262Z,2
2023-02-17T08:23:11.258Z,1.72
2023-02-17T08:24:11.291Z,1.61
2023-02-17T08:25:11.304Z,1.72
2023-02-17T08:26:11.269Z,2
2023-02-17T08:27:11.298Z,2.17
2023-02-17T08:28:11.300Z,2
2023-02-17T08:29:11.278Z,2.17
2023-02-17T08:30:11.312Z,2.44
2023-02-17T08:31:11.323Z,2.72
2023-02-17T08:32:11.297Z,2.72
2023-02-17T08:33:11.280Z,3.17
2023-02-17T08:34:11.271Z,2.44
2023-02-17T08:35:11.302Z,2.44
2023-02-17T08:36:11.288Z,2.44
2023-02-17T08:37:11.275Z,2.61
2023-02-17T08:38:11.291Z,3
2023-02-17T08:39:11.275Z,3
2023-02-17T08:40:11.271Z,3.33
2023-02-17T08:41:11.275Z,3.56
2023-02-17T08:42:11.278Z,3.44
2023-02-17T08:43:11.282Z,3.44
2023-02-17T08:44:11.277Z,2.89
2023-02-17T08:45:11.273Z,2.61
2023-02-17T08:46:11.295Z,2.61
2023-02-17T08:47:11.325Z,2.61
2023-02-17T08:48:11.304Z,2.28
2023-02-17T08:49:11.273Z,2.17
2023-02-17T08:50:11.279Z,2.44
2023-02-17T08:51:11.316Z,2.44
2023-02-17T08:52:11.314Z,2.28
2023-02-17T08:53:11.296Z,2.44
2023-02-17T08:54:11.289Z,2.44
2023-02-17T08:55:11.306Z,2.17
2023-02-17T08:56:11.290Z,1.89
2023-02-17T08:57:11.291Z,1.89
2023-02-17T08:58:11.320Z,1.89
2023-02-17T08:59:11.287Z,2.61
2023-02-17T09:00:11.284Z,2.61
2023-02-17T09:01:11.359Z,2.89
2023-02-17T09:02:11.293Z,2.61
2023-02-17T09:03:11.282Z,2.89
2023-02-17T09:04:11.298Z,2.61
2023-02-17T09:05:11.400Z,3
2023-02-17T09:06:11.333Z,3.44
2023-02-17T09:07:11.372Z,3.83
2023-02-17T09:08:11.321Z,4
2023-02-17T09:09:11.311Z,3.33
2023-02-17T09:10:11.323Z,3.72
2023-02-17T09:11:11.295Z,3.56
2023-02-17T09:12:11.342Z,4.17
2023-02-17T09:13:11.296Z,4
2023-02-17T09:14:11.298Z,4.17
2023-02-17T09:15:11.314Z,4.28
2023-02-17T09:16:11.428Z,4.28
2023-02-17T09:17:11.339Z,4.28
2023-02-17T09:18:11.298Z,3.56
2023-02-17T09:19:11.303Z,3.56
2023-02-17T09:20:23.053Z,3.72
2023-02-17T09:21:11.313Z,3.72
2023-02-17T09:22:20.172Z,3.72
2023-02-17T09:23:11.323Z,3.72
2023-02-17T09:24:11.359Z,3.33
2023-02-17T09:25:11.329Z,3.44
2023-02-17T09:26:11.301Z,3.56
2023-02-17T09:27:11.307Z,3.83
2023-02-17T09:28:11.310Z,4.17
2023-02-17T09:29:11.306Z,3.72
2023-02-17T09:30:11.399Z,4.56
2023-02-17T09:31:11.445Z,4.44
2023-02-17T09:32:11.460Z,5
2023-02-17T09:33:11.310Z,4.89
2023-02-17T09:34:11.346Z,4.89
2023-02-17T09:35:11.307Z,4.89
2023-02-17T09:36:11.370Z,5.44
2023-02-17T09:37:11.319Z,5.61
2023-02-17T09:38:11.332Z,5.72
2023-02-17T09:39:13.519Z,6
2023-02-17T09:40:11.366Z,6
2023-02-17T09:41:11.369Z,6.11
2023-02-17T09:42:11.319Z,5.83
2023-02-17T09:43:11.303Z,5.33
2023-02-17T09:44:11.371Z,5.44
2023-02-17T09:45:12.884Z,5.33
2023-02-17T09:46:11.355Z,5.44
2023-02-17T09:47:11.464Z,5.39
2023-02-17T09:48:11.361Z,5.44
2023-02-17T09:49:11.385Z,5.61
2023-02-17T09:50:11.326Z,5.44
2023-02-17T09:51:12.603Z,5.61
2023-02-17T09:52:11.320Z,5.61
2023-02-17T09:53:11.341Z,5
2023-02-17T09:54:11.320Z,5.33
2023-02-17T09:55:11.429Z,5.61
2023-02-17T09:56:11.428Z,6
2023-02-17T09:57:11.335Z,6.28
2023-02-17T09:58:11.305Z,5.72
2023-02-17T09:59:11.328Z,5.61
2023-02-17T10:00:11.329Z,6
2023-02-17T10:01:11.350Z,6
2023-02-17T10:02:11.327Z,5.5
2023-02-17T10:03:13.078Z,5.56
2023-02-17T10:04:11.474Z,5.39
2023-02-17T10:05:11.430Z,5.39
2023-02-17T10:06:11.356Z,5.11
2023-02-17T10:07:11.415Z,4.83
2023-02-17T10:08:11.339Z,4.94
2023-02-17T10:09:12.984Z,4.83
2023-02-17T10:10:11.335Z,4.94
2023-02-17T10:11:11.339Z,4.94
2023-02-17T10:12:11.363Z,4.94
2023-02-17T10:13:11.311Z,4.94
2023-02-17T10:14:11.339Z,4.83
2023-02-17T10:15:13.509Z,4.83
2023-02-17T10:16:11.421Z,4.67
2023-02-17T10:17:11.376Z,4.67
2023-02-17T10:18:11.321Z,4.94
2023-02-17T10:19:11.307Z,4.22
2023-02-17T10:20:11.327Z,4.39
2023-02-17T10:21:12.997Z,4.11
2023-02-17T10:22:11.305Z,4.39
2023-02-17T10:23:11.379Z,4.39
2023-02-17T10:24:11.346Z,4.83
2023-02-17T10:25:11.309Z,4.39
2023-02-17T10:26:11.315Z,4.5
2023-02-17T10:27:11.339Z,4.39
2023-02-17T10:28:11.355Z,4.83
2023-02-17T10:29:11.339Z,5.56
2023-02-17T10:30:11.495Z,6.22
2023-02-17T10:31:11.477Z,5.94
2023-02-17T10:32:11.504Z,7.5
2023-02-17T10:33:11.309Z,7.94
2023-02-17T10:34:11.305Z,6.78
2023-02-17T10:35:11.312Z,6.78
2023-02-17T10:36:11.309Z,6.67
2023-02-17T10:37:11.313Z,6.94
2023-02-17T10:38:11.310Z,7.39
2023-02-17T10:39:11.322Z,7.39
2023-02-17T10:40:11.321Z,6.78
2023-02-17T10:41:11.344Z,6.94
2023-02-17T10:42:11.330Z,7.39
2023-02-17T10:43:11.361Z,7.5
2023-02-17T10:44:11.324Z,7.5
2023-02-17T10:45:11.322Z,6.94
2023-02-17T10:46:11.308Z,7.11
2023-02-17T10:47:11.316Z,6.22
2023-02-17T10:48:11.313Z,5.22
2023-02-17T10:49:11.312Z,4.94
2023-02-17T10:50:11.311Z,5.78
2023-02-17T10:51:11.311Z,6.5
2023-02-17T10:52:11.324Z,6.94
2023-02-17T10:53:11.313Z,7.22
2023-02-17T10:54:11.314Z,7.94
2023-02-17T10:55:22.233Z,8.28
2023-02-17T10:56:11.314Z,7.39
2023-02-17T10:57:11.330Z,7.94
2023-02-17T10:58:11.322Z,7.67
2023-02-17T10:59:11.342Z,8.5
2023-02-17T11:00:11.323Z,8.94
2023-02-17T11:01:11.327Z,8.61
2023-02-17T11:02:11.322Z,7.94
2023-02-17T11:03:11.319Z,7.78
2023-02-17T11:04:13.597Z,7.5
2023-02-17T11:05:11.320Z,7.39
2023-02-17T11:06:11.339Z,6.5
2023-02-17T11:07:11.326Z,6.78
2023-02-17T11:08:11.330Z,6.78
2023-02-17T11:09:11.357Z,6.67
2023-02-17T11:10:13.082Z,6.5
2023-02-17T11:11:11.338Z,6.39
2023-02-17T11:12:11.345Z,6.39
2023-02-17T11:13:11.336Z,5.78
2023-02-17T11:14:11.338Z,5.22
2023-02-17T11:15:11.362Z,4.94
2023-02-17T11:16:14.002Z,5.22
2023-02-17T11:17:11.340Z,5.39
2023-02-17T11:18:11.345Z,5.78
2023-02-17T11:19:11.338Z,6.22
2023-02-17T11:20:11.351Z,6.22
2023-02-17T11:21:11.358Z,6.39
2023-02-17T11:22:12.970Z,6.94
2023-02-17T11:23:11.347Z,7.39
2023-02-17T11:24:11.356Z,7.5
2023-02-17T11:25:11.356Z,7.39
2023-02-17T11:26:11.348Z,6.94
2023-02-17T11:27:11.348Z,7.39
2023-02-17T11:28:11.344Z,7.39
2023-02-17T11:29:11.364Z,7.39
2023-02-17T11:30:11.411Z,7.5
2023-02-17T11:31:11.464Z,7.94
2023-02-17T11:32:11.373Z,8.39
2023-02-17T11:33:11.349Z,7.39
2023-02-17T11:34:11.350Z,7.5
2023-02-17T11:35:11.352Z,8.28
2023-02-17T11:36:11.356Z,8.61
2023-02-17T11:37:11.366Z,8.78
2023-02-17T11:38:11.378Z,9.39
2023-02-17T11:39:11.368Z,9.06
2023-02-17T11:40:11.358Z,7.94
2023-02-17T11:41:11.360Z,7.39
2023-02-17T11:42:11.357Z,7.78
2023-02-17T11:43:11.345Z,7.94
2023-02-17T11:44:11.372Z,8.39
2023-02-17T11:45:11.363Z,8.39
2023-02-17T11:46:11.394Z,8.78
2023-02-17T11:47:11.768Z,8.11
2023-02-17T11:48:11.373Z,6.78
2023-02-17T11:49:11.386Z,6.67
2023-02-17T11:50:11.377Z,7.11
2023-02-17T11:51:11.368Z,7.22
2023-02-17T11:52:11.369Z,8.39
2023-02-17T11:53:11.366Z,8.78
2023-02-17T11:54:11.362Z,8.78
2023-02-17T11:55:11.370Z,8.78
2023-02-17T11:56:11.372Z,8.28
2023-02-17T11:57:11.380Z,8.11
2023-02-17T11:58:11.373Z,8.78
2023-02-17T11:59:11.369Z,7.94
2023-02-17T12:00:11.381Z,7.5
2023-02-17T12:01:11.373Z,6.94
2023-02-17T12:02:11.380Z,6.94
2023-02-17T12:03:11.550Z,6.78
2023-02-17T12:04:11.376Z,7.22
2023-02-17T12:05:11.416Z,8.11
2023-02-17T12:06:11.375Z,8.39
2023-02-17T12:07:11.373Z,8.78
2023-02-17T12:08:11.371Z,9.39
2023-02-17T12:09:11.387Z,10.11
2023-02-17T12:10:11.378Z,9.94
2023-02-17T12:11:11.383Z,9.78
2023-02-17T12:12:11.384Z,9.06
2023-02-17T12:13:11.379Z,8.39
2023-02-17T12:14:11.394Z,8.61
2023-02-17T12:15:11.396Z,8.28
2023-02-17T12:16:11.454Z,7.94
2023-02-17T12:17:11.404Z,6.94
2023-02-17T12:18:11.391Z,7.11
2023-02-17T12:19:11.443Z,6.5
2023-02-17T12:20:11.405Z,6.06
2023-02-17T12:21:11.397Z,6.5
2023-02-17T12:22:11.399Z,6.5
2023-02-17T12:23:11.401Z,6.22
2023-02-17T12:24:11.401Z,6.5
2023-02-17T12:25:11.391Z,6.67
2023-02-17T12:26:11.405Z,6.67
2023-02-17T12:27:11.399Z,6.67
2023-02-17T12:28:11.414Z,7.11
2023-02-17T12:29:11.417Z,7.5
2023-02-17T12:30:11.458Z,7.5
2023-02-17T12:31:11.892Z,6.94
2023-02-17T12:32:11.528Z,7.11
2023-02-17T12:33:11.428Z,7.5
2023-02-17T12:34:11.403Z,8.39
2023-02-17T12:35:11.449Z,8.78
2023-02-17T12:36:11.417Z,8.78
2023-02-17T12:37:11.414Z,9.22
2023-02-17T12:38:11.411Z,8.94
2023-02-17T12:39:11.402Z,8.78
2023-02-17T12:40:11.410Z,8.61
2023-02-17T12:41:11.417Z,8.78
2023-02-17T12:42:11.410Z,7.78
2023-02-17T12:43:11.406Z,7.94
2023-02-17T12:44:11.423Z,7.78
2023-02-17T12:45:11.422Z,8.11
2023-02-17T12:46:11.421Z,8.11
2023-02-17T12:47:11.418Z,7.94
2023-02-17T12:48:11.416Z,7.5
2023-02-17T12:49:11.457Z,7.39
2023-02-17T12:50:11.417Z,7.39
2023-02-17T12:51:11.437Z,7.78
2023-02-17T12:52:11.418Z,8.28
2023-02-17T12:53:11.428Z,8.5
2023-02-17T12:54:11.437Z,8.94
2023-02-17T12:55:11.440Z,9.22
2023-02-17T12:56:11.414Z,9.39
2023-02-17T12:57:11.421Z,8.94
2023-02-17T12:58:11.431Z,8.94
2023-02-17T12:59:11.425Z,8.61
2023-02-17T13:00:11.426Z,8.78
2023-02-17T13:01:11.481Z,9.06
2023-02-17T13:02:11.454Z,9.5
2023-02-17T13:03:11.454Z,9.39
2023-02-17T13:04:11.431Z,9.5
2023-02-17T13:05:11.450Z,8.28
2023-02-17T13:06:11.441Z,7.44
2023-02-17T13:07:11.465Z,7.72
2023-02-17T13:08:11.440Z,7.78
2023-02-17T13:09:11.440Z,7.44
2023-02-17T13:10:11.448Z,8.11
2023-02-17T13:11:11.444Z,7.72
2023-02-17T13:12:11.439Z,7.61
2023-02-17T13:13:11.458Z,7
2023-02-17T13:14:11.441Z,7.17
2023-02-17T13:15:11.450Z,7.44
2023-02-17T13:16:11.745Z,7.89
2023-02-17T13:17:11.446Z,8.28
2023-02-17T13:18:11.479Z,8.78
2023-02-17T13:19:11.438Z,9.67
2023-02-17T13:20:11.458Z,10.11
2023-02-17T13:21:12.459Z,9.67
2023-02-17T13:22:11.463Z,8.78
2023-02-17T13:23:11.479Z,7.72
2023-02-17T13:24:11.445Z,7.61
2023-02-17T13:25:11.472Z,8.39